»·PEaware :: N314TW BGBW-BIRK

N314TW :: BGBW-BIRK

FLIGHT INFORMATION

Flight Status: Arrived
Operator: Privately registered:
United States
More flights under this callsign
Pilot: Timothy W. (9658)
Aircraft: ECLIPSE 500
(EA50)
More flights by this aircraft type
Origin: BGBW Narsarsuaq
Greenland
Destination: BIRK Reykjavik
Iceland
More flights between these airports :: More routes between these airports
Route: NA DEVNU INGAN
File this flight plan on PilotEdge
Remarks:
Altitude:
(Current/Filed)
35,000ft
Speed:
(Current/Filed)
314kts
Departed: 15-Apr-17 05:09 AM
Arrived: 15-Apr-17 07:29 AM
Distance/Time
Traveled:
667nm/2:20
Distance/Time
To Go:
Arrived

Flight Plot

Page will automatically refresh every two minutes.

Flight plan parsing failed; only flown route is shown


Map Options




Map Legend


Flown Route
Filed Route
Departure Airport
Arrival Airport
Navaid (VOR, NDB)
Fix

Horizontal Profiles

Position Reports

Time Latitude Longitude Heading Altitude Ground
Speed
15-Apr-17 05:04 61.163047 -45.416711 38 184ft 0kts
15-Apr-17 05:05 61.163047 -45.416711 38 184ft 0kts
15-Apr-17 05:06 61.163047 -45.416711 38 184ft 0kts
15-Apr-17 05:07 61.163047 -45.416711 38 184ft 0kts
15-Apr-17 05:08 61.163927 -45.417389 309 168ft 15kts
15-Apr-17 05:09 61.166202 -45.415880 45 144ft 8kts
15-Apr-17 05:10 61.164621 -45.418718 218 152ft 67kts
15-Apr-17 05:11 61.135868 -45.472060 221 1496ft 178kts
15-Apr-17 05:12 61.096450 -45.533970 180 4226ft 188kts
15-Apr-17 05:13 61.095059 -45.464753 17 6697ft 189kts
15-Apr-17 05:14 61.145341 -45.430636 20 8989ft 196kts
15-Apr-17 05:15 61.190710 -45.371815 46 11045ft 202kts
15-Apr-17 05:16 61.231704 -45.289257 47 12956ft 210kts
15-Apr-17 05:17 61.274043 -45.203381 47 14713ft 217kts
15-Apr-17 05:18 61.317948 -45.113856 48 16326ft 225kts
15-Apr-17 05:19 61.362434 -45.022747 48 17884ft 228kts
15-Apr-17 05:20 61.407678 -44.929654 48 19321ft 230kts
15-Apr-17 05:21 61.453747 -44.835736 49 20609ft 235kts
15-Apr-17 05:22 61.500924 -44.738867 50 21743ft 243kts
15-Apr-17 05:23 61.549431 -44.638107 50 22795ft 250kts
15-Apr-17 05:24 61.598984 -44.534479 50 23740ft 257kts
15-Apr-17 05:25 61.649938 -44.427267 50 24618ft 264kts
15-Apr-17 05:26 61.702380 -44.316319 50 25441ft 271kts
15-Apr-17 05:27 61.755644 -44.203037 50 26205ft 278kts
15-Apr-17 05:28 61.809900 -44.087032 50 26919ft 284kts
15-Apr-17 05:29 61.865736 -43.967001 50 27598ft 290kts
15-Apr-17 05:30 61.922719 -43.844902 50 28246ft 295kts
15-Apr-17 05:31 61.980727 -43.720228 50 28852ft 300kts
15-Apr-17 05:32 62.039601 -43.591904 50 29428ft 305kts
15-Apr-17 05:33 62.098921 -43.461541 49 29972ft 310kts
15-Apr-17 05:34 62.159224 -43.328130 49 30491ft 315kts
15-Apr-17 05:35 62.220119 -43.192553 49 30985ft 319kts
15-Apr-17 05:36 62.282107 -43.053501 47 31393ft 326kts
15-Apr-17 05:37 62.344858 -42.912038 46 31830ft 330kts
15-Apr-17 05:38 62.408438 -42.770051 47 32270ft 333kts
15-Apr-17 05:39 62.472420 -42.624687 47 32689ft 336kts
15-Apr-17 05:40 62.536753 -42.476921 47 33091ft 339kts
15-Apr-17 05:41 62.601201 -42.327755 47 33444ft 342kts
15-Apr-17 05:42 62.666316 -42.175956 47 33778ft 344kts
15-Apr-17 05:43 62.730946 -42.024235 47 34099ft 346kts
15-Apr-17 05:44 62.796324 -41.870139 47 34419ft 348kts
15-Apr-17 05:45 62.862392 -41.715064 48 34712ft 350kts
15-Apr-17 05:46 62.928183 -41.557819 48 34996ft 352kts
15-Apr-17 05:47 62.993557 -41.400053 48 35075ft 352kts
15-Apr-17 05:48 63.059286 -41.240198 48 35093ft 352kts
15-Apr-17 05:49 63.124652 -41.080046 48 35234ft 352kts
15-Apr-17 05:50 63.189827 -40.919110 47 35293ft 354kts
15-Apr-17 05:51 63.255692 -40.756776 50 35291ft 355kts
15-Apr-17 05:52 63.317410 -40.586475 44 35291ft 355kts
15-Apr-17 05:53 63.385663 -40.428250 47 35293ft 355kts
15-Apr-17 05:54 63.451360 -40.264312 48 35294ft 355kts
15-Apr-17 05:55 63.516235 -40.098830 48 35295ft 355kts
15-Apr-17 05:56 63.581036 -39.931775 48 35289ft 355kts
15-Apr-17 05:57 63.645664 -39.766082 49 35286ft 355kts
15-Apr-17 05:58 63.710303 -39.597713 49 35287ft 355kts
15-Apr-17 05:59 63.774259 -39.429095 49 35288ft 355kts
15-Apr-17 06:00 63.838067 -39.259417 49 35290ft 355kts
15-Apr-17 06:01 63.901798 -39.088582 49 35291ft 355kts
15-Apr-17 06:02 63.965168 -38.917300 48 35292ft 356kts
15-Apr-17 06:03 64.029372 -38.745196 49 35289ft 356kts
15-Apr-17 06:04 64.092569 -38.572717 49 35290ft 356kts
15-Apr-17 06:05 64.155531 -38.398833 49 35291ft 356kts
15-Apr-17 06:06 64.218592 -38.223148 49 35292ft 356kts
15-Apr-17 06:07 64.281207 -38.047285 49 35293ft 356kts
15-Apr-17 06:08 64.343766 -37.870574 49 35292ft 356kts
15-Apr-17 06:09 64.406548 -37.694064 50 35292ft 356kts
15-Apr-17 06:10 64.468761 -37.515695 50 35293ft 356kts
15-Apr-17 06:11 64.530573 -37.336582 50 35294ft 356kts
15-Apr-17 06:12 64.591975 -37.157078 50 35289ft 356kts
15-Apr-17 06:13 64.653477 -36.975699 49 35290ft 357kts
15-Apr-17 06:14 64.715018 -36.795002 50 35287ft 357kts
15-Apr-17 06:15 64.775889 -36.612969 52 35288ft 357kts
15-Apr-17 06:16 64.825104 -36.457118 52 35289ft 357kts
15-Apr-17 06:17 64.893728 -36.238473 52 35290ft 357kts
15-Apr-17 06:18 64.942650 -36.081371 52 35291ft 357kts
15-Apr-17 06:19 65.002831 -35.851768 89 35301ft 353kts
15-Apr-17 06:20 65.004395 -35.620900 93 35289ft 352kts
15-Apr-17 06:21 65.004209 -35.428137 94 35290ft 352kts
15-Apr-17 06:22 65.003370 -35.197159 94 35291ft 352kts
15-Apr-17 06:23 65.002084 -34.966098 93 35292ft 353kts
15-Apr-17 06:24 65.000827 -34.694374 94 35289ft 355kts
15-Apr-17 06:25 64.999366 -34.501018 94 35290ft 355kts
15-Apr-17 06:26 64.997079 -34.270671 94 35291ft 355kts
15-Apr-17 06:27 64.994350 -34.038095 94 35292ft 355kts
15-Apr-17 06:28 64.991632 -33.805700 94 35289ft 355kts
15-Apr-17 06:29 64.988696 -33.574087 95 35289ft 355kts
15-Apr-17 06:30 64.984982 -33.341696 95 35290ft 355kts
15-Apr-17 06:31 64.980813 -33.109136 95 35292ft 355kts
15-Apr-17 06:32 64.976256 -32.876273 95 35290ft 357kts
15-Apr-17 06:33 64.972107 -32.641889 95 35289ft 357kts
15-Apr-17 06:34 64.966987 -32.408500 95 35290ft 357kts
15-Apr-17 06:35 64.961335 -32.174358 95 35291ft 357kts
15-Apr-17 06:36 64.955312 -31.941332 95 35292ft 357kts
15-Apr-17 06:37 64.949612 -31.708251 96 35289ft 357kts
15-Apr-17 06:38 64.943096 -31.474338 96 35290ft 357kts
15-Apr-17 06:39 64.936026 -31.241461 96 35291ft 357kts
15-Apr-17 06:40 64.928489 -31.007913 96 35292ft 358kts
15-Apr-17 06:41 64.921118 -30.773961 96 35288ft 358kts
15-Apr-17 06:42 64.913310 -30.540845 96 35289ft 358kts
15-Apr-17 06:43 64.904771 -30.307191 96 35291ft 358kts
15-Apr-17 06:44 64.895794 -30.073718 96 35307ft 358kts
15-Apr-17 06:45 64.886685 -29.841224 97 35316ft 358kts
15-Apr-17 06:46 64.877579 -29.607241 97 35316ft 358kts
15-Apr-17 06:47 64.867668 -29.375155 97 35317ft 358kts
15-Apr-17 06:48 64.857247 -29.142415 97 35318ft 358kts
15-Apr-17 06:49 64.846431 -28.910048 97 35320ft 359kts
15-Apr-17 06:50 64.835980 -28.676745 98 35316ft 359kts
15-Apr-17 06:51 64.825616 -28.463411 98 35317ft 359kts
15-Apr-17 06:52 64.813771 -28.230872 98 35318ft 359kts
15-Apr-17 06:53 64.801522 -27.998607 98 35319ft 359kts
15-Apr-17 06:54 64.789413 -27.766002 98 35315ft 359kts
15-Apr-17 06:55 64.776165 -27.535239 99 35316ft 359kts
15-Apr-17 06:56 64.762203 -27.302959 99 35299ft 360kts
15-Apr-17 06:57 64.748032 -27.073068 100 34097ft 351kts
15-Apr-17 06:58 64.734050 -26.849820 100 32905ft 344kts
15-Apr-17 06:59 64.720542 -26.631240 101 31667ft 335kts
15-Apr-17 07:00 64.706252 -26.414364 101 30170ft 356kts
15-Apr-17 07:01 64.690294 -26.179094 101 28677ft 366kts
15-Apr-17 07:02 64.674135 -25.947172 102 27102ft 367kts
15-Apr-17 07:03 64.658508 -25.718260 102 25361ft 349kts
15-Apr-17 07:04 64.642818 -25.498930 103 24532ft 326kts
15-Apr-17 07:05 64.627651 -25.294652 103 23326ft 318kts
15-Apr-17 07:06 64.612447 -25.094464 103 22122ft 312kts
15-Apr-17 07:07 64.597109 -24.896304 103 20923ft 309kts
15-Apr-17 07:08 64.582587 -24.702277 103 19708ft 301kts
15-Apr-17 07:09 64.567721 -24.513829 103 18500ft 294kts
15-Apr-17 07:10 64.550723 -24.331848 104 17298ft 287kts
15-Apr-17 07:11 64.535327 -24.153387 104 16297ft 281kts
15-Apr-17 07:12 64.520478 -23.977768 103 15299ft 276kts
15-Apr-17 07:13 64.506228 -23.804898 103 14291ft 270kts
15-Apr-17 07:14 64.492188 -23.636448 104 13283ft 265kts
15-Apr-17 07:15 64.477882 -23.470524 104 12271ft 259kts
15-Apr-17 07:16 64.463582 -23.308250 103 11360ft 257kts
15-Apr-17 07:17 64.449182 -23.147130 102 10462ft 255kts
15-Apr-17 07:18 64.434665 -22.986929 101 9565ft 253kts
15-Apr-17 07:19 64.420662 -22.830653 100 8671ft 248kts
15-Apr-17 07:20 64.406954 -22.677890 99 7772ft 242kts
15-Apr-17 07:21 64.392467 -22.528227 100 6865ft 235kts
15-Apr-17 07:22 64.377913 -22.383158 100 5972ft 234kts
15-Apr-17 07:23 64.363893 -22.240475 100 5077ft 228kts
15-Apr-17 07:24 64.350111 -22.100592 101 4181ft 221kts
15-Apr-17 07:25 64.326229 -21.980535 167 3383ft 202kts
15-Apr-17 07:26 64.273634 -21.963685 173 2802ft 188kts
15-Apr-17 07:27 64.221434 -21.952367 174 2014ft 184kts
15-Apr-17 07:28 64.179705 -21.945377 177 1072ft 125kts
15-Apr-17 07:29 64.145884 -21.939960 175 304ft 117kts
15-Apr-17 07:30 64.125016 -21.936792 177 9ft 25kts
15-Apr-17 07:32 64.124396 -21.935051 85 11ft 0kts
15-Apr-17 07:32 64.124396 -21.935051 85 11ft 0kts
15-Apr-17 07:33 64.124396 -21.935051 85 11ft 0kts
15-Apr-17 07:34 64.124396 -21.935051 85 11ft 0kts
15-Apr-17 07:35 64.124401 -21.934894 83 12ft 0kts
15-Apr-17 07:36 64.124666 -21.934365 3 14ft 4kts
15-Apr-17 07:37 64.125969 -21.934912 343 17ft 0kts
15-Apr-17 07:38 64.127438 -21.934928 355 23ft 11kts
15-Apr-17 07:39 64.129164 -21.935285 327 29ft 4kts
15-Apr-17 07:40 64.129884 -21.935734 357 31ft 2kts

Navigation Log

Ident Type
Flight plan parsing failed, navigation log unavailable